sensor_id;sensor_type;location;lat;lon;timestamp;temperature;humidity
69938;DHT22;57248;47.320;15.998;2023-07-13T00:00:18;17.60;92.02
69938;DHT22;57248;47.320;15.998;2023-07-13T00:02:50;17.74;91.56
69938;DHT22;57248;47.320;15.998;2023-07-13T00:05:24;17.75;91.84
69938;DHT22;57248;47.320;15.998;2023-07-13T00:07:56;17.71;91.63
69938;DHT22;57248;47.320;15.998;2023-07-13T00:10:28;17.74;91.67
69938;DHT22;57248;47.320;15.998;2023-07-13T00:13:00;17.77;91.22
69938;DHT22;57248;47.320;15.998;2023-07-13T00:15:26;17.71;91.30
69938;DHT22;57248;47.320;15.998;2023-07-13T00:17:59;17.75;90.97
69938;DHT22;57248;47.320;15.998;2023-07-13T00:20:34;17.71;91.18
69938;DHT22;57248;47.320;15.998;2023-07-13T00:23:06;17.73;90.82
69938;DHT22;57248;47.320;15.998;2023-07-13T00:25:45;17.63;92.42
69938;DHT22;57248;47.320;15.998;2023-07-13T00:28:17;17.43;93.42
69938;DHT22;57248;47.320;15.998;2023-07-13T00:30:49;17.46;93.23
69938;DHT22;57248;47.320;15.998;2023-07-13T00:33:21;17.59;91.97
69938;DHT22;57248;47.320;15.998;2023-07-13T00:35:55;17.57;92.48
69938;DHT22;57248;47.320;15.998;2023-07-13T00:38:27;17.53;92.47
69938;DHT22;57248;47.320;15.998;2023-07-13T00:40:59;17.60;91.84
69938;DHT22;57248;47.320;15.998;2023-07-13T00:43:32;17.64;92.40
69938;DHT22;57248;47.320;15.998;2023-07-13T00:46:33;17.57;91.91
69938;DHT22;57248;47.320;15.998;2023-07-13T00:49:07;17.51;92.22
69938;DHT22;57248;47.320;15.998;2023-07-13T00:51:54;17.51;93.09
69938;DHT22;57248;47.320;15.998;2023-07-13T00:54:33;17.56;92.42
69938;DHT22;57248;47.320;15.998;2023-07-13T00:57:09;17.60;91.88
69938;DHT22;57248;47.320;15.998;2023-07-13T00:59:43;17.43;93.40
69938;DHT22;57248;47.320;15.998;2023-07-13T01:02:17;17.43;93.05
69938;DHT22;57248;47.320;15.998;2023-07-13T01:04:50;17.46;93.45
69938;DHT22;57248;47.320;15.998;2023-07-13T01:07:23;17.43;93.18
69938;DHT22;57248;47.320;15.998;2023-07-13T01:09:56;17.40;93.37
69938;DHT22;57248;47.320;15.998;2023-07-13T01:12:29;17.40;93.35
69938;DHT22;57248;47.320;15.998;2023-07-13T01:15:03;17.35;93.22
69938;DHT22;57248;47.320;15.998;2023-07-13T01:17:36;17.51;92.94
69938;DHT22;57248;47.320;15.998;2023-07-13T01:20:01;17.50;93.65
69938;DHT22;57248;47.320;15.998;2023-07-13T01:22:33;17.40;93.68
69938;DHT22;57248;47.320;15.998;2023-07-13T01:24:58;17.43;93.58
69938;DHT22;57248;47.320;15.998;2023-07-13T01:27:30;17.37;94.39
69938;DHT22;57248;47.320;15.998;2023-07-13T01:30:09;17.43;94.18
69938;DHT22;57248;47.320;15.998;2023-07-13T01:32:42;17.40;94.28
69938;DHT22;57248;47.320;15.998;2023-07-13T01:35:14;17.51;93.98
69938;DHT22;57248;47.320;15.998;2023-07-13T01:37:46;17.54;93.39
69938;DHT22;57248;47.320;15.998;2023-07-13T01:40:18;17.54;93.88
69938;DHT22;57248;47.320;15.998;2023-07-13T01:42:43;17.54;93.95
69938;DHT22;57248;47.320;15.998;2023-07-13T01:45:19;17.59;93.69
69938;DHT22;57248;47.320;15.998;2023-07-13T01:47:51;17.64;93.47
69938;DHT22;57248;47.320;15.998;2023-07-13T01:50:23;17.62;93.57
69938;DHT22;57248;47.320;15.998;2023-07-13T01:52:56;17.56;94.06
69938;DHT22;57248;47.320;15.998;2023-07-13T01:55:29;17.57;93.58
69938;DHT22;57248;47.320;15.998;2023-07-13T01:58:02;17.60;93.75
69938;DHT22;57248;47.320;15.998;2023-07-13T02:00:28;17.62;93.86
69938;DHT22;57248;47.320;15.998;2023-07-13T02:03:01;17.67;93.81
69938;DHT22;57248;47.320;15.998;2023-07-13T02:05:33;17.66;94.38
69938;DHT22;57248;47.320;15.998;2023-07-13T02:08:05;17.66;94.37
69938;DHT22;57248;47.320;15.998;2023-07-13T02:10:37;17.77;94.24
69938;DHT22;57248;47.320;15.998;2023-07-13T02:13:09;17.70;94.34
69938;DHT22;57248;47.320;15.998;2023-07-13T02:15:41;17.78;93.99
69938;DHT22;57248;47.320;15.998;2023-07-13T02:18:06;17.78;94.45
69938;DHT22;57248;47.320;15.998;2023-07-13T02:20:38;17.75;94.61
69938;DHT22;57248;47.320;15.998;2023-07-13T02:23:10;17.78;94.94
69938;DHT22;57248;47.320;15.998;2023-07-13T02:25:56;17.75;94.91
69938;DHT22;57248;47.320;15.998;2023-07-13T02:28:35;17.69;95.61
69938;DHT22;57248;47.320;15.998;2023-07-13T02:31:12;17.70;95.44
69938;DHT22;57248;47.320;15.998;2023-07-13T02:33:45;18.08;92.59
69938;DHT22;57248;47.320;15.998;2023-07-13T02:36:18;18.21;91.04
69938;DHT22;57248;47.320;15.998;2023-07-13T02:38:45;18.32;90.82
69938;DHT22;57248;47.320;15.998;2023-07-13T02:41:17;18.46;90.04
69938;DHT22;57248;47.320;15.998;2023-07-13T02:43:49;18.19;92.80
69938;DHT22;57248;47.320;15.998;2023-07-13T02:46:21;18.06;93.85
69938;DHT22;57248;47.320;15.998;2023-07-13T02:48:55;17.94;94.38
69938;DHT22;57248;47.320;15.998;2023-07-13T02:51:27;17.95;94.19
69938;DHT22;57248;47.320;15.998;2023-07-13T02:54:03;17.97;94.18
69938;DHT22;57248;47.320;15.998;2023-07-13T02:56:30;18.01;93.20
69938;DHT22;57248;47.320;15.998;2023-07-13T02:59:03;17.98;93.10
69938;DHT22;57248;47.320;15.998;2023-07-13T03:01:35;17.90;93.94
69938;DHT22;57248;47.320;15.998;2023-07-13T03:04:07;17.83;94.05
69938;DHT22;57248;47.320;15.998;2023-07-13T03:06:39;17.87;93.27
69938;DHT22;57248;47.320;15.998;2023-07-13T03:09:13;17.78;94.23
69938;DHT22;57248;47.320;15.998;2023-07-13T03:11:54;17.74;94.66
69938;DHT22;57248;47.320;15.998;2023-07-13T03:14:30;17.64;94.90
69938;DHT22;57248;47.320;15.998;2023-07-13T03:17:07;17.56;95.51
69938;DHT22;57248;47.320;15.998;2023-07-13T03:19:40;17.71;95.29
69938;DHT22;57248;47.320;15.998;2023-07-13T03:22:13;17.75;95.21
69938;DHT22;57248;47.320;15.998;2023-07-13T03:24:45;17.69;94.90
69938;DHT22;57248;47.320;15.998;2023-07-13T03:27:24;17.75;94.18
69938;DHT22;57248;47.320;15.998;2023-07-13T03:29:56;17.74;94.55
69938;DHT22;57248;47.320;15.998;2023-07-13T03:32:28;17.78;93.87
69938;DHT22;57248;47.320;15.998;2023-07-13T03:35:00;17.83;93.66
69938;DHT22;57248;47.320;15.998;2023-07-13T03:37:33;17.85;93.30
69938;DHT22;57248;47.320;15.998;2023-07-13T03:40:05;17.90;93.39
69938;DHT22;57248;47.320;15.998;2023-07-13T03:42:43;17.85;93.85
69938;DHT22;57248;47.320;15.998;2023-07-13T03:45:17;17.74;95.33
69938;DHT22;57248;47.320;15.998;2023-07-13T03:47:50;17.73;95.21
69938;DHT22;57248;47.320;15.998;2023-07-13T03:50:23;17.73;94.96
69938;DHT22;57248;47.320;15.998;2023-07-13T03:52:49;17.77;94.67
69938;DHT22;57248;47.320;15.998;2023-07-13T03:55:21;17.78;94.44
69938;DHT22;57248;47.320;15.998;2023-07-13T03:57:58;17.74;95.08
69938;DHT22;57248;47.320;15.998;2023-07-13T04:00:31;17.74;95.17
69938;DHT22;57248;47.320;15.998;2023-07-13T04:03:03;17.77;94.15
69938;DHT22;57248;47.320;15.998;2023-07-13T04:05:35;17.77;93.36
69938;DHT22;57248;47.320;15.998;2023-07-13T04:08:11;17.81;93.48
69938;DHT22;57248;47.320;15.998;2023-07-13T04:10:44;17.77;93.47
69938;DHT22;57248;47.320;15.998;2023-07-13T04:13:16;17.74;93.24
69938;DHT22;57248;47.320;15.998;2023-07-13T04:15:48;17.74;93.26
69938;DHT22;57248;47.320;15.998;2023-07-13T04:18:14;17.75;93.79
69938;DHT22;57248;47.320;15.998;2023-07-13T04:20:47;17.78;93.58
69938;DHT22;57248;47.320;15.998;2023-07-13T04:23:19;17.88;92.79
69938;DHT22;57248;47.320;15.998;2023-07-13T04:25:53;18.01;92.45
69938;DHT22;57248;47.320;15.998;2023-07-13T04:28:33;18.06;92.60
69938;DHT22;57248;47.320;15.998;2023-07-13T04:31:05;18.24;92.08
69938;DHT22;57248;47.320;15.998;2023-07-13T04:33:30;18.39;91.79
69938;DHT22;57248;47.320;15.998;2023-07-13T04:36:02;18.55;90.79
69938;DHT22;57248;47.320;15.998;2023-07-13T04:38:34;18.80;90.49
69938;DHT22;57248;47.320;15.998;2023-07-13T04:41:07;18.87;90.48
69938;DHT22;57248;47.320;15.998;2023-07-13T04:43:40;19.04;90.25
69938;DHT22;57248;47.320;15.998;2023-07-13T04:46:13;18.96;90.66
69938;DHT22;57248;47.320;15.998;2023-07-13T04:48:46;18.86;90.48
69938;DHT22;57248;47.320;15.998;2023-07-13T04:51:18;18.93;91.05
69938;DHT22;57248;47.320;15.998;2023-07-13T04:53:51;19.00;90.96
69938;DHT22;57248;47.320;15.998;2023-07-13T04:56:23;18.86;91.94
69938;DHT22;57248;47.320;15.998;2023-07-13T04:58:55;18.94;91.32
69938;DHT22;57248;47.320;15.998;2023-07-13T05:01:27;19.13;90.16
69938;DHT22;57248;47.320;15.998;2023-07-13T05:03:52;18.69;91.47
69938;DHT22;57248;47.320;15.998;2023-07-13T05:06:25;18.84;90.93
69938;DHT22;57248;47.320;15.998;2023-07-13T05:08:58;18.83;91.62
69938;DHT22;57248;47.320;15.998;2023-07-13T05:11:31;18.99;91.52
69938;DHT22;57248;47.320;15.998;2023-07-13T05:14:03;18.76;91.88
69938;DHT22;57248;47.320;15.998;2023-07-13T05:16:35;19.04;91.42
69938;DHT22;57248;47.320;15.998;2023-07-13T05:19:08;19.47;90.23
69938;DHT22;57248;47.320;15.998;2023-07-13T05:21:40;19.75;91.17
69938;DHT22;57248;47.320;15.998;2023-07-13T05:24:20;19.97;89.99
69938;DHT22;57248;47.320;15.998;2023-07-13T05:26:59;19.92;89.99
69938;DHT22;57248;47.320;15.998;2023-07-13T05:29:31;20.34;89.32
69938;DHT22;57248;47.320;15.998;2023-07-13T05:32:03;20.61;90.10
69938;DHT22;57248;47.320;15.998;2023-07-13T05:34:35;20.48;88.80
69938;DHT22;57248;47.320;15.998;2023-07-13T05:37:07;21.40;88.17
69938;DHT22;57248;47.320;15.998;2023-07-13T05:39:33;21.86;87.07
69938;DHT22;57248;47.320;15.998;2023-07-13T05:42:06;21.98;86.12
69938;DHT22;57248;47.320;15.998;2023-07-13T05:44:38;21.71;84.45
69938;DHT22;57248;47.320;15.998;2023-07-13T05:47:10;22.08;85.73
69938;DHT22;57248;47.320;15.998;2023-07-13T05:49:42;22.10;84.31
69938;DHT22;57248;47.320;15.998;2023-07-13T05:52:14;21.64;83.79
69938;DHT22;57248;47.320;15.998;2023-07-13T05:54:47;21.76;84.70
69938;DHT22;57248;47.320;15.998;2023-07-13T05:57:19;21.61;81.21
69938;DHT22;57248;47.320;15.998;2023-07-13T05:59:51;21.87;83.15
69938;DHT22;57248;47.320;15.998;2023-07-13T06:02:23;22.37;81.79
69938;DHT22;57248;47.320;15.998;2023-07-13T06:04:55;22.88;81.26
69938;DHT22;57248;47.320;15.998;2023-07-13T06:07:27;22.96;80.10
69938;DHT22;57248;47.320;15.998;2023-07-13T06:09:59;22.96;78.35
69938;DHT22;57248;47.320;15.998;2023-07-13T06:12:32;22.80;78.83
69938;DHT22;57248;47.320;15.998;2023-07-13T06:15:04;23.47;79.97
69938;DHT22;57248;47.320;15.998;2023-07-13T06:17:36;23.65;76.47
69938;DHT22;57248;47.320;15.998;2023-07-13T06:20:08;22.77;77.21
69938;DHT22;57248;47.320;15.998;2023-07-13T06:22:55;23.47;78.61
69938;DHT22;57248;47.320;15.998;2023-07-13T06:25:27;23.71;76.90
69938;DHT22;57248;47.320;15.998;2023-07-13T06:28:07;23.41;75.64
69938;DHT22;57248;47.320;15.998;2023-07-13T06:30:39;23.14;78.12
69938;DHT22;57248;47.320;15.998;2023-07-13T06:33:12;23.71;76.37
69938;DHT22;57248;47.320;15.998;2023-07-13T06:35:44;24.23;76.37
69938;DHT22;57248;47.320;15.998;2023-07-13T06:38:17;23.86;77.16
69938;DHT22;57248;47.320;15.998;2023-07-13T06:40:43;23.71;75.52
69938;DHT22;57248;47.320;15.998;2023-07-13T06:43:15;24.37;75.51
69938;DHT22;57248;47.320;15.998;2023-07-13T06:45:48;24.57;73.78
69938;DHT22;57248;47.320;15.998;2023-07-13T06:48:23;23.27;77.06
69938;DHT22;57248;47.320;15.998;2023-07-13T06:50:55;24.15;75.64
69938;DHT22;57248;47.320;15.998;2023-07-13T06:53:27;24.36;74.12
69938;DHT22;57248;47.320;15.998;2023-07-13T06:55:52;24.60;75.14
69938;DHT22;57248;47.320;15.998;2023-07-13T06:58:25;25.58;72.02
69938;DHT22;57248;47.320;15.998;2023-07-13T07:00:57;26.17;72.82
69938;DHT22;57248;47.320;15.998;2023-07-13T07:03:29;26.44;69.91
69938;DHT22;57248;47.320;15.998;2023-07-13T07:06:22;26.82;68.60
69938;DHT22;57248;47.320;15.998;2023-07-13T07:08:55;26.68;67.63
69938;DHT22;57248;47.320;15.998;2023-07-13T07:11:27;27.23;68.95
69938;DHT22;57248;47.320;15.998;2023-07-13T07:13:59;27.64;67.77
69938;DHT22;57248;47.320;15.998;2023-07-13T07:16:31;28.00;66.99
69938;DHT22;57248;47.320;15.998;2023-07-13T07:19:03;27.53;67.31
69938;DHT22;57248;47.320;15.998;2023-07-13T07:21:28;27.95;66.61
69938;DHT22;57248;47.320;15.998;2023-07-13T07:24:00;26.85;67.71
69938;DHT22;57248;47.320;15.998;2023-07-13T07:26:39;27.55;65.59
69938;DHT22;57248;47.320;15.998;2023-07-13T07:29:11;28.21;64.08
69938;DHT22;57248;47.320;15.998;2023-07-13T07:31:43;28.55;62.12
69938;DHT22;57248;47.320;15.998;2023-07-13T07:34:08;29.39;61.91
69938;DHT22;57248;47.320;15.998;2023-07-13T07:36:40;29.07;59.93
69938;DHT22;57248;47.320;15.998;2023-07-13T07:39:12;29.58;58.17
69938;DHT22;57248;47.320;15.998;2023-07-13T07:41:44;29.85;61.05
69938;DHT22;57248;47.320;15.998;2023-07-13T07:44:16;30.36;57.68
69938;DHT22;57248;47.320;15.998;2023-07-13T07:46:48;31.53;55.67
69938;DHT22;57248;47.320;15.998;2023-07-13T07:49:21;31.05;52.87
69938;DHT22;57248;47.320;15.998;2023-07-13T07:51:53;31.50;54.66
69938;DHT22;57248;47.320;15.998;2023-07-13T07:54:25;32.92;53.18
69938;DHT22;57248;47.320;15.998;2023-07-13T07:56:57;34.36;50.54
69938;DHT22;57248;47.320;15.998;2023-07-13T07:59:29;35.35;45.24
69938;DHT22;57248;47.320;15.998;2023-07-13T08:02:01;36.80;44.55
69938;DHT22;57248;47.320;15.998;2023-07-13T08:04:34;38.50;41.98
69938;DHT22;57248;47.320;15.998;2023-07-13T08:07:06;38.55;39.41
69938;DHT22;57248;47.320;15.998;2023-07-13T08:09:38;39.23;40.37
69938;DHT22;57248;47.320;15.998;2023-07-13T08:12:10;40.08;40.13
69938;DHT22;57248;47.320;15.998;2023-07-13T08:14:43;40.72;38.72
69938;DHT22;57248;47.320;15.998;2023-07-13T08:17:15;40.58;38.18
69938;DHT22;57248;47.320;15.998;2023-07-13T08:19:48;40.68;38.36
69938;DHT22;57248;47.320;15.998;2023-07-13T08:22:21;41.41;37.53
69938;DHT22;57248;47.320;15.998;2023-07-13T08:24:47;40.83;35.34
69938;DHT22;57248;47.320;15.998;2023-07-13T08:27:28;42.42;34.79
69938;DHT22;57248;47.320;15.998;2023-07-13T08:30:08;41.99;32.18
69938;DHT22;57248;47.320;15.998;2023-07-13T08:32:41;43.08;31.14
69938;DHT22;57248;47.320;15.998;2023-07-13T08:35:13;42.57;30.55
69938;DHT22;57248;47.320;15.998;2023-07-13T08:37:45;41.19;33.10
69938;DHT22;57248;47.320;15.998;2023-07-13T08:40:19;42.11;32.83
69938;DHT22;57248;47.320;15.998;2023-07-13T08:42:58;40.17;32.15
69938;DHT22;57248;47.320;15.998;2023-07-13T08:45:44;42.35;29.64
69938;DHT22;57248;47.320;15.998;2023-07-13T08:48:30;37.83;32.19
69938;DHT22;57248;47.320;15.998;2023-07-13T08:51:12;37.46;34.10
69938;DHT22;57248;47.320;15.998;2023-07-13T08:53:55;42.26;32.05
69938;DHT22;57248;47.320;15.998;2023-07-13T08:56:30;43.90;30.70
69938;DHT22;57248;47.320;15.998;2023-07-13T08:59:11;43.52;31.29
69938;DHT22;57248;47.320;15.998;2023-07-13T09:04:53;44.91;30.30
69938;DHT22;57248;47.320;15.998;2023-07-13T09:10:23;42.68;28.10
69938;DHT22;57248;47.320;15.998;2023-07-13T09:15:41;44.24;29.75
69938;DHT22;57248;47.320;15.998;2023-07-13T09:18:31;45.15;28.92
69938;DHT22;57248;47.320;15.998;2023-07-13T09:21:10;43.46;29.97
69938;DHT22;57248;47.320;15.998;2023-07-13T09:23:44;43.19;30.91
69938;DHT22;57248;47.320;15.998;2023-07-13T09:26:24;43.89;29.71
69938;DHT22;57248;47.320;15.998;2023-07-13T09:29:09;43.75;28.87
69938;DHT22;57248;47.320;15.998;2023-07-13T09:31:49;44.27;28.04
69938;DHT22;57248;47.320;15.998;2023-07-13T09:34:21;46.09;29.03
69938;DHT22;57248;47.320;15.998;2023-07-13T09:36:54;45.21;26.97
69938;DHT22;57248;47.320;15.998;2023-07-13T09:42:19;43.03;27.72
69938;DHT22;57248;47.320;15.998;2023-07-13T09:44:59;43.01;28.46
69938;DHT22;57248;47.320;15.998;2023-07-13T09:47:33;45.05;27.19
69938;DHT22;57248;47.320;15.998;2023-07-13T09:50:14;45.42;27.95
69938;DHT22;57248;47.320;15.998;2023-07-13T09:52:49;45.53;26.67
69938;DHT22;57248;47.320;15.998;2023-07-13T09:58:21;47.46;24.38
69938;DHT22;57248;47.320;15.998;2023-07-13T10:01:02;44.07;27.40
69938;DHT22;57248;47.320;15.998;2023-07-13T10:03:36;45.39;28.39
69938;DHT22;57248;47.320;15.998;2023-07-13T10:06:20;44.77;28.55
69938;DHT22;57248;47.320;15.998;2023-07-13T10:08:56;44.00;28.46
69938;DHT22;57248;47.320;15.998;2023-07-13T10:11:30;44.36;27.54
69938;DHT22;57248;47.320;15.998;2023-07-13T10:14:16;46.00;28.29
69938;DHT22;57248;47.320;15.998;2023-07-13T10:16:55;45.93;27.49
69938;DHT22;57248;47.320;15.998;2023-07-13T10:19:31;45.68;26.03
69938;DHT22;57248;47.320;15.998;2023-07-13T10:24:52;46.51;26.11
69938;DHT22;57248;47.320;15.998;2023-07-13T10:27:34;46.47;27.68
69938;DHT22;57248;47.320;15.998;2023-07-13T10:30:19;47.94;25.24
69938;DHT22;57248;47.320;15.998;2023-07-13T10:32:51;48.03;24.60
69938;DHT22;57248;47.320;15.998;2023-07-13T10:35:26;49.69;24.31
69938;DHT22;57248;47.320;15.998;2023-07-13T10:38:10;49.78;24.48
69938;DHT22;57248;47.320;15.998;2023-07-13T10:40:51;49.84;26.21
69938;DHT22;57248;47.320;15.998;2023-07-13T10:43:31;47.38;24.94
69938;DHT22;57248;47.320;15.998;2023-07-13T10:46:07;47.69;26.11
69938;DHT22;57248;47.320;15.998;2023-07-13T10:48:34;47.65;25.57
69938;DHT22;57248;47.320;15.998;2023-07-13T10:51:10;47.22;25.58
69938;DHT22;57248;47.320;15.998;2023-07-13T10:53:42;47.38;23.32
69938;DHT22;57248;47.320;15.998;2023-07-13T10:56:30;44.79;27.22
69938;DHT22;57248;47.320;15.998;2023-07-13T11:04:44;43.72;27.92
69938;DHT22;57248;47.320;15.998;2023-07-13T11:07:29;43.35;28.64
69938;DHT22;57248;47.320;15.998;2023-07-13T11:10:04;42.95;28.60
69938;DHT22;57248;47.320;15.998;2023-07-13T11:15:32;44.74;25.96
69938;DHT22;57248;47.320;15.998;2023-07-13T11:18:19;40.49;30.13
69938;DHT22;57248;47.320;15.998;2023-07-13T11:21:12;34.08;38.56
69938;DHT22;57248;47.320;15.998;2023-07-13T11:23:53;33.55;39.81
69938;DHT22;57248;47.320;15.998;2023-07-13T11:29:32;32.93;43.00
69938;DHT22;57248;47.320;15.998;2023-07-13T11:32:29;34.40;40.97
69938;DHT22;57248;47.320;15.998;2023-07-13T11:35:03;33.23;43.75
69938;DHT22;57248;47.320;15.998;2023-07-13T11:37:30;33.97;42.47
69938;DHT22;57248;47.320;15.998;2023-07-13T11:40:03;35.59;40.47
69938;DHT22;57248;47.320;15.998;2023-07-13T11:42:38;35.93;39.50
69938;DHT22;57248;47.320;15.998;2023-07-13T11:45:19;39.33;35.76
69938;DHT22;57248;47.320;15.998;2023-07-13T11:47:51;37.35;37.49
69938;DHT22;57248;47.320;15.998;2023-07-13T11:50:23;38.70;36.22
69938;DHT22;57248;47.320;15.998;2023-07-13T11:52:58;37.29;37.35
69938;DHT22;57248;47.320;15.998;2023-07-13T11:55:31;34.25;40.49
69938;DHT22;57248;47.320;15.998;2023-07-13T11:58:03;38.45;35.05
69938;DHT22;57248;47.320;15.998;2023-07-13T12:00:32;36.94;37.16
69938;DHT22;57248;47.320;15.998;2023-07-13T12:03:11;35.07;40.93
69938;DHT22;57248;47.320;15.998;2023-07-13T12:06:03;35.07;41.85
69938;DHT22;57248;47.320;15.998;2023-07-13T12:08:38;34.43;41.19
69938;DHT22;57248;47.320;15.998;2023-07-13T12:11:16;33.44;43.21
69938;DHT22;57248;47.320;15.998;2023-07-13T12:13:48;33.23;42.50
69938;DHT22;57248;47.320;15.998;2023-07-13T12:16:32;32.78;44.13
69938;DHT22;57248;47.320;15.998;2023-07-13T12:19:16;33.74;40.93
69938;DHT22;57248;47.320;15.998;2023-07-13T12:21:52;32.96;42.88
69938;DHT22;57248;47.320;15.998;2023-07-13T12:24:25;33.84;42.21
69938;DHT22;57248;47.320;15.998;2023-07-13T12:27:03;31.67;44.63
69938;DHT22;57248;47.320;15.998;2023-07-13T12:29:49;32.18;43.58
69938;DHT22;57248;47.320;15.998;2023-07-13T12:32:21;33.29;41.90
69938;DHT22;57248;47.320;15.998;2023-07-13T12:35:16;35.35;40.53
69938;DHT22;57248;47.320;15.998;2023-07-13T12:37:48;37.38;37.79
69938;DHT22;57248;47.320;15.998;2023-07-13T12:40:19;38.72;36.49
69938;DHT22;57248;47.320;15.998;2023-07-13T12:42:52;36.73;36.15
69938;DHT22;57248;47.320;15.998;2023-07-13T12:45:26;32.39;44.88
69938;DHT22;57248;47.320;15.998;2023-07-13T12:48:05;30.98;47.92
69938;DHT22;57248;47.320;15.998;2023-07-13T12:50:43;31.21;48.71
69938;DHT22;57248;47.320;15.998;2023-07-13T12:53:28;29.95;50.73
69938;DHT22;57248;47.320;15.998;2023-07-13T12:56:02;29.83;50.87
69938;DHT22;57248;47.320;15.998;2023-07-13T12:58:40;29.69;51.28
69938;DHT22;57248;47.320;15.998;2023-07-13T13:01:17;29.52;51.94
69938;DHT22;57248;47.320;15.998;2023-07-13T13:03:50;28.94;53.12
69938;DHT22;57248;47.320;15.998;2023-07-13T13:06:27;28.02;55.30
69938;DHT22;57248;47.320;15.998;2023-07-13T13:08:59;28.16;55.83
69938;DHT22;57248;47.320;15.998;2023-07-13T13:11:28;28.67;55.25
69938;DHT22;57248;47.320;15.998;2023-07-13T13:14:00;28.50;55.31
69938;DHT22;57248;47.320;15.998;2023-07-13T13:16:34;28.81;56.58
69938;DHT22;57248;47.320;15.998;2023-07-13T13:19:16;28.00;62.06
69938;DHT22;57248;47.320;15.998;2023-07-13T13:21:48;27.53;67.26
69938;DHT22;57248;47.320;15.998;2023-07-13T13:24:26;26.98;68.27
69938;DHT22;57248;47.320;15.998;2023-07-13T13:27:08;24.46;71.71
69938;DHT22;57248;47.320;15.998;2023-07-13T13:29:45;23.44;76.39
69938;DHT22;57248;47.320;15.998;2023-07-13T13:32:18;23.14;78.60
69938;DHT22;57248;47.320;15.998;2023-07-13T13:34:50;22.53;77.97
69938;DHT22;57248;47.320;15.998;2023-07-13T13:37:23;21.83;80.57
69938;DHT22;57248;47.320;15.998;2023-07-13T13:39:58;21.79;81.90
69938;DHT22;57248;47.320;15.998;2023-07-13T13:42:30;21.74;80.41
69938;DHT22;57248;47.320;15.998;2023-07-13T13:45:02;22.38;79.00
69938;DHT22;57248;47.320;15.998;2023-07-13T13:47:34;22.18;80.61
69938;DHT22;57248;47.320;15.998;2023-07-13T13:50:21;22.22;79.78
69938;DHT22;57248;47.320;15.998;2023-07-13T13:52:54;22.00;81.03
69938;DHT22;57248;47.320;15.998;2023-07-13T13:55:21;21.71;81.52
69938;DHT22;57248;47.320;15.998;2023-07-13T13:57:53;21.05;82.86
69938;DHT22;57248;47.320;15.998;2023-07-13T14:00:25;20.51;84.34
69938;DHT22;57248;47.320;15.998;2023-07-13T14:02:57;20.67;83.67
69938;DHT22;57248;47.320;15.998;2023-07-13T14:05:29;19.96;86.10
69938;DHT22;57248;47.320;15.998;2023-07-13T14:08:03;19.83;86.24
69938;DHT22;57248;47.320;15.998;2023-07-13T14:10:35;19.25;81.51
69938;DHT22;57248;47.320;15.998;2023-07-13T14:13:16;19.39;84.66
69938;DHT22;57248;47.320;15.998;2023-07-13T14:15:50;19.32;86.83
69938;DHT22;57248;47.320;15.998;2023-07-13T14:18:23;19.38;88.22
69938;DHT22;57248;47.320;15.998;2023-07-13T14:20:55;19.36;86.79
69938;DHT22;57248;47.320;15.998;2023-07-13T14:23:28;19.02;88.98
69938;DHT22;57248;47.320;15.998;2023-07-13T14:26:00;19.14;88.30
69938;DHT22;57248;47.320;15.998;2023-07-13T14:29:18;19.65;85.98
69938;DHT22;57248;47.320;15.998;2023-07-13T14:31:50;19.96;83.92
69938;DHT22;57248;47.320;15.998;2023-07-13T14:34:23;19.82;84.22
69938;DHT22;57248;47.320;15.998;2023-07-13T14:36:55;19.95;84.00
69938;DHT22;57248;47.320;15.998;2023-07-13T14:39:29;19.96;84.46
69938;DHT22;57248;47.320;15.998;2023-07-13T14:42:01;20.10;84.57
69938;DHT22;57248;47.320;15.998;2023-07-13T14:44:35;20.29;84.13
69938;DHT22;57248;47.320;15.998;2023-07-13T14:47:08;20.41;83.89
69938;DHT22;57248;47.320;15.998;2023-07-13T14:49:37;20.43;82.92
69938;DHT22;57248;47.320;15.998;2023-07-13T14:52:20;20.23;83.54
69938;DHT22;57248;47.320;15.998;2023-07-13T14:54:55;20.08;84.33
69938;DHT22;57248;47.320;15.998;2023-07-13T14:57:31;20.13;85.08
69938;DHT22;57248;47.320;15.998;2023-07-13T14:59:57;20.29;84.38
69938;DHT22;57248;47.320;15.998;2023-07-13T15:02:34;20.48;83.54
69938;DHT22;57248;47.320;15.998;2023-07-13T15:07:45;20.68;83.02
69938;DHT22;57248;47.320;15.998;2023-07-13T15:10:28;20.57;83.70
69938;DHT22;57248;47.320;15.998;2023-07-13T15:13:19;20.12;85.85
69938;DHT22;57248;47.320;15.998;2023-07-13T15:15:53;20.57;84.46
69938;DHT22;57248;47.320;15.998;2023-07-13T15:18:21;20.58;84.66
69938;DHT22;57248;47.320;15.998;2023-07-13T15:20:54;20.61;83.98
69938;DHT22;57248;47.320;15.998;2023-07-13T15:23:21;20.57;84.06
69938;DHT22;57248;47.320;15.998;2023-07-13T15:25:54;20.23;85.17
69938;DHT22;57248;47.320;15.998;2023-07-13T15:28:34;20.64;83.57
69938;DHT22;57248;47.320;15.998;2023-07-13T15:31:19;20.24;84.68
69938;DHT22;57248;47.320;15.998;2023-07-13T15:33:52;20.41;83.97
69938;DHT22;57248;47.320;15.998;2023-07-13T15:36:20;20.48;84.06
69938;DHT22;57248;47.320;15.998;2023-07-13T15:38:55;20.55;84.46
69938;DHT22;57248;47.320;15.998;2023-07-13T15:41:28;20.65;83.89
69938;DHT22;57248;47.320;15.998;2023-07-13T15:44:12;20.37;85.82
69938;DHT22;57248;47.320;15.998;2023-07-13T15:46:51;20.26;86.19
69938;DHT22;57248;47.320;15.998;2023-07-13T15:49:25;20.26;84.92
69938;DHT22;57248;47.320;15.998;2023-07-13T15:51:58;20.26;85.32
69938;DHT22;57248;47.320;15.998;2023-07-13T15:54:29;20.12;85.45
69938;DHT22;57248;47.320;15.998;2023-07-13T15:57:02;20.22;85.81
69938;DHT22;57248;47.320;15.998;2023-07-13T15:59:34;20.27;85.46
69938;DHT22;57248;47.320;15.998;2023-07-13T16:02:20;20.26;85.78
69938;DHT22;57248;47.320;15.998;2023-07-13T16:04:52;20.19;85.67
69938;DHT22;57248;47.320;15.998;2023-07-13T16:07:24;20.14;85.66
69938;DHT22;57248;47.320;15.998;2023-07-13T16:09:57;20.06;85.21
69938;DHT22;57248;47.320;15.998;2023-07-13T16:12:29;20.05;85.73
69938;DHT22;57248;47.320;15.998;2023-07-13T16:15:01;19.95;86.48
69938;DHT22;57248;47.320;15.998;2023-07-13T16:17:34;19.95;86.39
69938;DHT22;57248;47.320;15.998;2023-07-13T16:20:01;19.89;86.76
69938;DHT22;57248;47.320;15.998;2023-07-13T16:22:36;19.85;87.14
69938;DHT22;57248;47.320;15.998;2023-07-13T16:25:25;19.89;86.66
69938;DHT22;57248;47.320;15.998;2023-07-13T16:28:04;19.75;87.72
69938;DHT22;57248;47.320;15.998;2023-07-13T16:30:43;19.59;88.71